createdAt,value
2022-08-14T00:00:19.387Z,99560.63
2022-08-14T00:02:47.972Z,99563.94
2022-08-14T00:05:15.956Z,99560.16
2022-08-14T00:07:43.613Z,99561.00
2022-08-14T00:10:50.073Z,99556.38
2022-08-14T00:13:06.874Z,99548.00
2022-08-14T00:15:43.403Z,99546.78
2022-08-14T00:18:14.374Z,99541.13
2022-08-14T00:20:42.943Z,99539.84
2022-08-14T00:23:14.604Z,99536.91
2022-08-14T00:25:54.077Z,99536.69
2022-08-14T00:28:34.990Z,99535.44
2022-08-14T00:31:03.756Z,99522.69
2022-08-14T00:33:50.645Z,99527.69
2022-08-14T00:36:35.797Z,99517.41
2022-08-14T00:39:09.435Z,99516.97
2022-08-14T00:41:39.231Z,99519.88
2022-08-14T00:44:06.994Z,99514.88
2022-08-14T00:46:35.890Z,99525.31
2022-08-14T00:49:04.060Z,99520.59
2022-08-14T00:51:37.691Z,99518.72
2022-08-14T00:54:16.881Z,99516.66
2022-08-14T00:56:49.298Z,99512.50
2022-08-14T00:59:16.903Z,99507.72
2022-08-14T01:01:45.077Z,99510.22
2022-08-14T01:04:37.301Z,99507.09
2022-08-14T01:07:04.860Z,99503.72
2022-08-14T01:09:36.705Z,99501.00
2022-08-14T01:12:04.510Z,99502.81
2022-08-14T01:14:32.237Z,99501.94
2022-08-14T01:17:00.035Z,99501.09
2022-08-14T01:19:48.743Z,99497.09
2022-08-14T01:22:19.218Z,99491.47
2022-08-14T01:24:47.325Z,99482.28
2022-08-14T01:27:15.011Z,99479.31
2022-08-14T01:30:00.840Z,99473.47
2022-08-14T01:32:30.445Z,99475.56
2022-08-14T01:35:19.976Z,99476.97
2022-08-14T01:37:54.581Z,99472.16
2022-08-14T01:40:25.671Z,99462.97
2022-08-14T01:43:02.748Z,99466.91
2022-08-14T01:45:31.328Z,99457.72
2022-08-14T01:48:13.714Z,99467.28
2022-08-14T01:50:42.081Z,99458.94
2022-08-14T01:53:09.779Z,99457.66
2022-08-14T01:55:40.524Z,99457.03
2022-08-14T01:58:20.400Z,99450.28
2022-08-14T02:00:53.119Z,99443.63
2022-08-14T02:03:21.229Z,99442.31
2022-08-14T02:05:49.767Z,99440.84
2022-08-14T02:08:22.303Z,99433.13
2022-08-14T02:11:24.178Z,99438.97
2022-08-14T02:13:52.395Z,99435.59
2022-08-14T02:16:22.266Z,99429.34
2022-08-14T02:18:50.602Z,99421.44
2022-08-14T02:21:19.511Z,99413.91
2022-08-14T02:23:53.515Z,99415.59
2022-08-14T02:26:24.812Z,99418.72
2022-08-14T02:28:58.167Z,99420.19
2022-08-14T02:31:42.135Z,99411.91
2022-08-14T02:34:11.305Z,99412.09
2022-08-14T02:37:03.574Z,99410.59
2022-08-14T02:39:34.897Z,99410.16
2022-08-14T02:42:04.529Z,99398.50
2022-08-14T02:44:32.293Z,99399.59
2022-08-14T02:47:08.480Z,99394.41
2022-08-14T02:49:43.201Z,99393.59
2022-08-14T02:52:55.623Z,99385.72
2022-08-14T02:54:58.715Z,99390.72
2022-08-14T02:57:40.439Z,99382.38
2022-08-14T03:00:09.864Z,99379.25
2022-08-14T03:02:56.073Z,99391.69
2022-08-14T03:05:26.556Z,99375.19
2022-08-14T03:07:54.509Z,99370.97
2022-08-14T03:10:27.653Z,99373.19
2022-08-14T03:13:00.698Z,99371.69
2022-08-14T03:15:28.423Z,99369.97
2022-08-14T03:17:58.374Z,99368.03
2022-08-14T03:20:26.213Z,99362.78
2022-08-14T03:22:53.922Z,99360.00
2022-08-14T03:25:23.271Z,99355.41
2022-08-14T03:27:58.655Z,99358.13
2022-08-14T03:30:39.834Z,99356.84
2022-08-14T03:33:10.306Z,99362.00
2022-08-14T03:36:00.425Z,99360.91
2022-08-14T03:39:13.666Z,99368.75
2022-08-14T03:41:14.730Z,99365.84
2022-08-14T03:43:42.373Z,99363.72
2022-08-14T03:46:39.132Z,99362.22
2022-08-14T03:49:03.104Z,99365.13
2022-08-14T03:51:31.363Z,99364.50
2022-08-14T03:53:59.878Z,99369.25
2022-08-14T03:56:27.783Z,99365.72
2022-08-14T03:58:55.805Z,99363.00
2022-08-14T04:01:29.321Z,99364.66
2022-08-14T04:04:09.907Z,99358.44
2022-08-14T04:06:42.586Z,99371.09
2022-08-14T04:09:15.425Z,99365.88
2022-08-14T04:11:45.442Z,99360.69
2022-08-14T04:14:15.378Z,99360.03
2022-08-14T04:16:48.296Z,99363.97
2022-08-14T04:19:17.590Z,99365.00
2022-08-14T04:22:02.104Z,99367.69
2022-08-14T04:24:37.659Z,99368.34
2022-08-14T04:27:06.415Z,99367.56
2022-08-14T04:29:38.385Z,99362.81
2022-08-14T04:32:58.211Z,99369.63
2022-08-14T04:34:53.762Z,99369.94
2022-08-14T04:37:40.868Z,99364.22
2022-08-14T04:40:27.745Z,99373.22
2022-08-14T04:43:14.334Z,99363.06
2022-08-14T04:45:51.160Z,99356.09
2022-08-14T04:48:39.838Z,99369.53
2022-08-14T04:51:08.735Z,99363.69
2022-08-14T04:53:42.880Z,99359.31
2022-08-14T04:56:31.664Z,99359.94
2022-08-14T04:58:58.945Z,99370.81
2022-08-14T05:01:39.984Z,99360.13
2022-08-14T05:04:08.552Z,99360.84
2022-08-14T05:06:38.043Z,99356.19
2022-08-14T05:09:07.326Z,99360.25
2022-08-14T05:11:41.538Z,99358.31
2022-08-14T05:14:16.795Z,99355.34
2022-08-14T05:17:01.854Z,99346.31
2022-08-14T05:19:31.879Z,99347.69
2022-08-14T05:22:15.576Z,99343.50
2022-08-14T05:24:45.845Z,99343.19
2022-08-14T05:27:22.207Z,99335.97
2022-08-14T05:29:51.453Z,99336.06
2022-08-14T05:32:19.620Z,99332.56
2022-08-14T05:34:47.805Z,99334.56
2022-08-14T05:37:15.703Z,99325.00
2022-08-14T05:39:43.497Z,99326.28
2022-08-14T05:42:21.505Z,99334.22
2022-08-14T05:44:49.629Z,99330.09
2022-08-14T05:47:21.771Z,99330.75
2022-08-14T05:49:49.449Z,99326.41
2022-08-14T05:52:18.120Z,99322.91
2022-08-14T05:54:47.024Z,99322.25
2022-08-14T05:57:15.100Z,99331.66
2022-08-14T05:59:43.943Z,99330.19
2022-08-14T06:02:11.557Z,99327.06
2022-08-14T06:04:39.669Z,99317.47
2022-08-14T06:07:07.406Z,99319.75
2022-08-14T06:09:40.536Z,99316.56
2022-08-14T06:12:08.667Z,99317.19
2022-08-14T06:14:36.689Z,99324.66
2022-08-14T06:17:04.582Z,99324.16
2022-08-14T06:19:32.188Z,99323.31
2022-08-14T06:21:59.926Z,99323.88
2022-08-14T06:24:30.482Z,99320.47
2022-08-14T06:27:03.854Z,99315.56
2022-08-14T06:29:33.529Z,99318.81
2022-08-14T06:32:36.950Z,99321.00
2022-08-14T06:35:10.706Z,99322.13
2022-08-14T06:37:38.815Z,99324.53
2022-08-14T06:40:25.429Z,99327.59
2022-08-14T06:42:55.840Z,99324.53
2022-08-14T06:45:26.311Z,99327.34
2022-08-14T06:47:54.836Z,99312.97
2022-08-14T06:50:27.710Z,99308.91
2022-08-14T06:52:56.011Z,99315.50
2022-08-14T06:55:28.266Z,99310.34
2022-08-14T06:57:57.671Z,99305.59
2022-08-14T07:00:26.985Z,99297.47
2022-08-14T07:03:15.296Z,99306.06
2022-08-14T07:05:58.040Z,99298.19
2022-08-14T07:08:29.843Z,99299.50
2022-08-14T07:10:59.689Z,99292.06
2022-08-14T07:13:27.789Z,99290.22
2022-08-14T07:15:56.261Z,99293.78
2022-08-14T07:18:26.149Z,99291.06
2022-08-14T07:20:53.844Z,99297.19
2022-08-14T07:23:24.045Z,99297.78
2022-08-14T07:25:53.167Z,99300.53
2022-08-14T07:28:21.566Z,99303.25
2022-08-14T07:30:50.480Z,99296.13
2022-08-14T07:33:20.671Z,99301.22
2022-08-14T07:35:58.363Z,99303.13
2022-08-14T07:38:35.879Z,99302.06
2022-08-14T07:41:11.808Z,99298.44
2022-08-14T07:43:42.685Z,99291.19
2022-08-14T07:46:11.797Z,99288.56
2022-08-14T07:48:40.066Z,99281.88
2022-08-14T07:51:10.954Z,99276.38
2022-08-14T07:53:40.655Z,99273.63
2022-08-14T07:56:44.140Z,99274.03
2022-08-14T07:58:58.757Z,99282.34
2022-08-14T08:01:26.744Z,99276.13
2022-08-14T08:04:00.193Z,99274.31
2022-08-14T08:06:28.982Z,99272.25
2022-08-14T08:08:58.732Z,99271.84
2022-08-14T08:11:34.979Z,99269.53
2022-08-14T08:14:06.326Z,99262.28
2022-08-14T08:16:39.155Z,99258.31
2022-08-14T08:19:14.013Z,99255.63
2022-08-14T08:21:43.892Z,99247.25
2022-08-14T08:24:19.902Z,99241.03
2022-08-14T08:26:50.322Z,99238.09
2022-08-14T08:29:18.581Z,99235.50
2022-08-14T08:31:52.067Z,99233.41
2022-08-14T08:34:20.422Z,99236.81
2022-08-14T08:36:52.648Z,99232.75
2022-08-14T08:39:22.561Z,99230.44
2022-08-14T08:41:53.784Z,99226.16
2022-08-14T08:44:31.575Z,99223.53
2022-08-14T08:47:05.787Z,99220.34
2022-08-14T08:49:36.375Z,99221.06
2022-08-14T08:52:24.443Z,99221.72
2022-08-14T08:54:53.593Z,99218.06
2022-08-14T08:57:21.953Z,99218.69
2022-08-14T08:59:54.057Z,99220.13
2022-08-14T09:02:36.793Z,99208.16
2022-08-14T09:05:04.920Z,99217.88
2022-08-14T09:07:32.581Z,99212.25
2022-08-14T09:10:01.682Z,99211.00
2022-08-14T09:12:31.615Z,99217.66
2022-08-14T09:15:00.497Z,99216.59
2022-08-14T09:17:28.226Z,99207.56
2022-08-14T09:19:56.026Z,99211.75
2022-08-14T09:22:35.405Z,99218.41
2022-08-14T09:25:06.888Z,99208.59
2022-08-14T09:27:35.200Z,99198.25
2022-08-14T09:30:31.264Z,99200.22
2022-08-14T09:32:59.200Z,99194.78
2022-08-14T09:35:27.864Z,99196.50
2022-08-14T09:37:56.509Z,99204.28
2022-08-14T09:40:24.676Z,99197.44
2022-08-14T09:42:57.203Z,99201.88
2022-08-14T09:45:25.154Z,99193.72
2022-08-14T09:47:58.223Z,99197.03
2022-08-14T09:50:28.193Z,99181.34
2022-08-14T09:52:56.950Z,99175.97
2022-08-14T09:55:26.285Z,99174.06
2022-08-14T09:57:55.665Z,99165.19
2022-08-14T10:00:29.189Z,99169.03
2022-08-14T10:03:05.278Z,99166.22
2022-08-14T10:05:34.381Z,99170.88
2022-08-14T10:08:06.217Z,99159.41
2022-08-14T10:10:43.559Z,99150.69
2022-08-14T10:13:19.570Z,99148.81
2022-08-14T10:15:48.578Z,99148.06
2022-08-14T10:18:19.139Z,99147.59
2022-08-14T10:20:49.831Z,99141.53
2022-08-14T10:23:18.152Z,99135.94
2022-08-14T10:25:46.609Z,99137.84
2022-08-14T10:28:51.550Z,99130.03
2022-08-14T10:31:03.502Z,99114.66
2022-08-14T10:33:32.164Z,99103.31
2022-08-14T10:36:00.928Z,99106.66
2022-08-14T10:38:32.063Z,99108.97
2022-08-14T10:41:02.187Z,99105.38
2022-08-14T10:43:32.150Z,99094.38
2022-08-14T10:46:22.041Z,99095.47
2022-08-14T10:48:52.283Z,99092.69
2022-08-14T10:51:22.648Z,99091.09
2022-08-14T10:53:55.732Z,99092.22
2022-08-14T10:56:32.220Z,99083.31
2022-08-14T10:59:02.511Z,99089.91
2022-08-14T11:01:30.701Z,99094.28
2022-08-14T11:04:00.667Z,99086.78
2022-08-14T11:06:29.002Z,99090.59
2022-08-14T11:08:56.770Z,99086.16
2022-08-14T11:11:25.438Z,99092.09
2022-08-14T11:14:04.092Z,99077.84
2022-08-14T11:16:31.914Z,99078.06
2022-08-14T11:19:00.094Z,99077.50
2022-08-14T11:21:30.321Z,99070.19
2022-08-14T11:24:02.240Z,99069.41
2022-08-14T11:26:49.919Z,99061.56
2022-08-14T11:29:22.065Z,99064.44
2022-08-14T11:31:52.383Z,99062.63
2022-08-14T11:34:32.228Z,99067.84
2022-08-14T11:37:09.711Z,99052.66
2022-08-14T11:39:51.169Z,99052.22
2022-08-14T11:42:56.608Z,99048.59
2022-08-14T11:45:11.327Z,99040.72
2022-08-14T11:48:12.687Z,99032.13
2022-08-14T11:50:36.870Z,99030.72
2022-08-14T11:53:05.807Z,99027.03
2022-08-14T11:55:35.156Z,99036.38
2022-08-14T11:58:03.506Z,99032.81
2022-08-14T12:00:38.192Z,99029.56
2022-08-14T12:03:08.058Z,99035.50
2022-08-14T12:05:39.873Z,99035.94
2022-08-14T12:08:13.416Z,99036.66
2022-08-14T12:10:42.760Z,99036.06
2022-08-14T12:13:10.980Z,99043.78
2022-08-14T12:15:44.753Z,99036.25
2022-08-14T12:18:19.726Z,99038.25
2022-08-14T12:20:52.638Z,99026.53
2022-08-14T12:23:21.022Z,99032.72
2022-08-14T12:26:01.370Z,99032.66
2022-08-14T12:28:59.664Z,99023.50
2022-08-14T12:31:26.941Z,99021.94
2022-08-14T12:33:55.141Z,99023.19
2022-08-14T12:36:22.769Z,99015.00
2022-08-14T12:38:54.263Z,99020.00
2022-08-14T12:41:22.172Z,99005.50
2022-08-14T12:43:59.926Z,99007.75
2022-08-14T12:46:28.652Z,99000.94
2022-08-14T12:48:56.748Z,98996.06
2022-08-14T12:51:27.330Z,98996.50
2022-08-14T12:53:59.253Z,98993.16
2022-08-14T12:56:33.479Z,98973.50
2022-08-14T12:59:02.061Z,98972.38
2022-08-14T13:01:31.209Z,98961.41
2022-08-14T13:03:59.238Z,98954.06
2022-08-14T13:06:33.321Z,98957.63
2022-08-14T13:09:01.827Z,98951.88
2022-08-14T13:11:31.181Z,98949.16
2022-08-14T13:13:59.584Z,98946.53
2022-08-14T13:16:37.758Z,98945.88
2022-08-14T13:19:06.204Z,98933.16
2022-08-14T13:22:05.011Z,98934.34
2022-08-14T13:24:27.636Z,98928.53
2022-08-14T13:26:57.022Z,98921.25
2022-08-14T13:29:24.707Z,98929.47
2022-08-14T13:31:53.724Z,98921.47
2022-08-14T13:34:22.802Z,98915.25
2022-08-14T13:36:59.425Z,98909.59
2022-08-14T13:39:36.121Z,98911.63
2022-08-14T13:42:10.871Z,98904.84
2022-08-14T13:44:39.786Z,98909.13
2022-08-14T13:47:10.959Z,98899.44
2022-08-14T13:49:40.284Z,98893.59
2022-08-14T13:52:59.498Z,98888.50
2022-08-14T13:55:13.569Z,98885.25
2022-08-14T13:57:49.676Z,98884.13
2022-08-14T14:00:21.770Z,98872.00
2022-08-14T14:03:01.006Z,98865.63
2022-08-14T14:05:53.022Z,98862.22
2022-08-14T14:08:18.827Z,98860.28
2022-08-14T14:11:04.017Z,98866.63
2022-08-14T14:13:32.168Z,98869.69
2022-08-14T14:16:02.491Z,98853.56
2022-08-14T14:18:34.776Z,98851.47
2022-08-14T14:21:02.913Z,98853.88
2022-08-14T14:23:32.497Z,98856.66
2022-08-14T14:26:00.384Z,98852.91
2022-08-14T14:28:28.041Z,98848.22
2022-08-14T14:31:01.206Z,98836.69
2022-08-14T14:33:49.046Z,98840.16
2022-08-14T14:36:21.280Z,98837.16
2022-08-14T14:38:49.924Z,98844.41
2022-08-14T14:41:18.907Z,98829.25
2022-08-14T14:43:48.145Z,98830.03
2022-08-14T14:46:19.515Z,98828.31
2022-08-14T14:48:54.162Z,98827.94
2022-08-14T14:51:22.558Z,98825.53
2022-08-14T14:53:50.263Z,98830.06
2022-08-14T14:56:52.123Z,98820.47
2022-08-14T14:59:05.848Z,98821.41
2022-08-14T15:01:33.605Z,98827.34
2022-08-14T15:04:04.067Z,98825.28
2022-08-14T15:06:35.675Z,98825.53
2022-08-14T15:09:04.765Z,98822.00
2022-08-14T15:11:36.617Z,98821.22
2022-08-14T15:14:55.588Z,98817.25
2022-08-14T15:16:53.900Z,98812.41
2022-08-14T15:19:27.009Z,98808.16
2022-08-14T15:21:56.028Z,98805.56
2022-08-14T15:24:26.552Z,98810.31
2022-08-14T15:26:57.243Z,98801.69
2022-08-14T15:29:26.461Z,98810.38
2022-08-14T15:31:54.141Z,98809.41
2022-08-14T15:34:43.046Z,98802.91
2022-08-14T15:37:12.883Z,98800.31
2022-08-14T15:39:44.385Z,98793.38
2022-08-14T15:42:16.266Z,98794.09
2022-08-14T15:44:57.935Z,98796.56
2022-08-14T15:47:29.777Z,98785.25
2022-08-14T15:49:59.334Z,98787.69
2022-08-14T15:52:32.730Z,98779.56
2022-08-14T15:55:03.653Z,98777.25
2022-08-14T15:57:32.557Z,98778.16
2022-08-14T16:00:40.172Z,98781.22
2022-08-14T16:03:16.517Z,98774.91
2022-08-14T16:05:45.971Z,98775.56
2022-08-14T16:08:27.051Z,98770.97
2022-08-14T16:10:58.317Z,98763.06
2022-08-14T16:13:42.004Z,98762.38
2022-08-14T16:16:47.405Z,98764.78
2022-08-14T16:18:59.067Z,98765.06
2022-08-14T16:21:31.669Z,98758.78
2022-08-14T16:23:59.675Z,98765.44
2022-08-14T16:26:30.033Z,98752.22
2022-08-14T16:29:02.797Z,98752.09
2022-08-14T16:31:36.225Z,98749.41
2022-08-14T16:34:46.784Z,98751.75
2022-08-14T16:36:51.810Z,98755.16
2022-08-14T16:39:19.773Z,98754.97
2022-08-14T16:41:50.968Z,98759.94
2022-08-14T16:44:31.783Z,98748.53
2022-08-14T16:47:01.724Z,98746.09
2022-08-14T16:50:03.525Z,98745.09
2022-08-14T16:52:26.008Z,98742.97
2022-08-14T16:55:06.784Z,98738.63
2022-08-14T16:57:35.216Z,98734.41
2022-08-14T17:00:07.018Z,98726.53
2022-08-14T17:02:35.491Z,98733.25
2022-08-14T17:05:03.289Z,98717.28
2022-08-14T17:07:31.756Z,98693.06
2022-08-14T17:10:09.904Z,98706.75
2022-08-14T17:12:40.862Z,98716.63
2022-08-14T17:15:11.249Z,98726.81
2022-08-14T17:17:43.256Z,98725.38
2022-08-14T17:20:52.921Z,98728.31
2022-08-14T17:22:59.065Z,98731.22
2022-08-14T17:25:30.079Z,98730.00
2022-08-14T17:27:57.949Z,98726.78
2022-08-14T17:30:32.604Z,98725.69
2022-08-14T17:33:07.041Z,98717.78
2022-08-14T17:35:58.159Z,98717.88
2022-08-14T17:38:38.298Z,98719.88
2022-08-14T17:41:22.178Z,98721.09
2022-08-14T17:43:54.777Z,98719.84
2022-08-14T17:46:24.521Z,98723.25
2022-08-14T17:49:16.056Z,98728.84
2022-08-14T17:51:41.367Z,98727.84
2022-08-14T17:54:34.490Z,98733.69
2022-08-14T17:57:03.022Z,98726.38
2022-08-14T17:59:41.758Z,98726.69
2022-08-14T18:02:09.481Z,98734.97
2022-08-14T18:04:44.283Z,98735.28
2022-08-14T18:07:50.569Z,98732.88
2022-08-14T18:09:59.971Z,98736.47
2022-08-14T18:12:47.580Z,98729.91
2022-08-14T18:15:17.590Z,98726.94
2022-08-14T18:17:45.644Z,98727.25
2022-08-14T18:21:41.042Z,98726.69
2022-08-14T18:23:10.428Z,98731.06
2022-08-14T18:25:40.871Z,98732.19
2022-08-14T18:28:16.299Z,98731.63
2022-08-14T18:30:58.645Z,98728.06
2022-08-14T18:33:26.745Z,98728.91
2022-08-14T18:36:46.338Z,98726.09
2022-08-14T18:39:00.048Z,98731.03
2022-08-14T18:41:37.309Z,98729.91
2022-08-14T18:44:10.671Z,98732.63
2022-08-14T18:47:00.605Z,98727.09
2022-08-14T18:49:26.686Z,98728.13
2022-08-14T18:52:01.823Z,98734.13
2022-08-14T18:54:29.711Z,98722.59
2022-08-14T18:56:58.487Z,98740.09
2022-08-14T18:59:26.741Z,98738.97
2022-08-14T19:01:56.245Z,98751.53
2022-08-14T19:04:24.158Z,98744.31
2022-08-14T19:06:56.024Z,98744.75
2022-08-14T19:09:25.051Z,98747.69
2022-08-14T19:11:54.146Z,98748.47
2022-08-14T19:14:25.831Z,98744.03
2022-08-14T19:16:54.731Z,98742.06
2022-08-14T19:19:24.193Z,98747.25
2022-08-14T19:21:51.892Z,98746.66
2022-08-14T19:24:27.396Z,98746.94
2022-08-14T19:26:58.168Z,98751.88
2022-08-14T19:29:37.813Z,98746.66
2022-08-14T19:32:08.133Z,98748.81
2022-08-14T19:34:37.452Z,98749.53
2022-08-14T19:37:09.840Z,98746.50
2022-08-14T19:39:42.618Z,98744.31
2022-08-14T19:42:14.461Z,98750.88
2022-08-14T19:44:56.473Z,98753.53
2022-08-14T19:47:25.474Z,98756.75
2022-08-14T19:50:30.188Z,98752.28
2022-08-14T19:52:57.269Z,98760.13
2022-08-14T19:55:34.337Z,98759.25
2022-08-14T19:58:05.108Z,98761.44
2022-08-14T20:00:33.121Z,98756.72
2022-08-14T20:03:10.603Z,98763.78
2022-08-14T20:05:42.887Z,98756.84
2022-08-14T20:10:58.747Z,98754.06
2022-08-14T20:11:20.746Z,98751.25
2022-08-14T20:13:50.459Z,98750.38
2022-08-14T20:16:31.844Z,98746.16
2022-08-14T20:19:00.140Z,98749.88
2022-08-14T20:21:34.421Z,98755.13
2022-08-14T20:24:02.856Z,98750.78
2022-08-14T20:26:36.764Z,98748.66
2022-08-14T20:29:07.110Z,98751.50
2022-08-14T20:31:36.900Z,98752.69
2022-08-14T20:34:06.147Z,98745.91
2022-08-14T20:36:34.121Z,98742.06
2022-08-14T20:39:04.062Z,98748.16
2022-08-14T20:41:33.426Z,98746.59
2022-08-14T20:44:20.739Z,98752.13
2022-08-14T20:46:50.027Z,98745.94
2022-08-14T20:49:21.440Z,98754.38
2022-08-14T20:51:58.370Z,98757.72
2022-08-14T20:54:34.673Z,98748.50
2022-08-14T20:57:05.018Z,98756.25
2022-08-14T20:59:33.493Z,98751.44
2022-08-14T21:02:01.216Z,98752.88
2022-08-14T21:04:48.951Z,98742.59
2022-08-14T21:07:25.146Z,98753.66
2022-08-14T21:10:33.743Z,98748.50
2022-08-14T21:13:26.185Z,98753.03
2022-08-14T21:15:41.588Z,98749.38
2022-08-14T21:18:09.912Z,98761.78
2022-08-14T21:20:38.106Z,98757.91
2022-08-14T21:23:07.490Z,98755.88
2022-08-14T21:25:35.111Z,98752.22
2022-08-14T21:28:04.021Z,98751.88
2022-08-14T21:30:41.846Z,98755.91
2022-08-14T21:33:21.574Z,98754.25
2022-08-14T21:35:49.744Z,98752.59
2022-08-14T21:38:33.705Z,98751.75
2022-08-14T21:41:02.736Z,98749.25
2022-08-14T21:43:50.425Z,98755.78
2022-08-14T21:46:19.712Z,98748.69
2022-08-14T21:48:47.437Z,98752.47
2022-08-14T21:51:53.577Z,98750.81
2022-08-14T21:54:32.204Z,98758.84
2022-08-14T21:56:57.909Z,98749.38
2022-08-14T21:59:29.213Z,98741.94
2022-08-14T22:02:01.832Z,98743.19
2022-08-14T22:04:33.243Z,98740.72
2022-08-14T22:07:02.477Z,98737.63
2022-08-14T22:09:32.571Z,98735.41
2022-08-14T22:12:06.878Z,98738.34
2022-08-14T22:14:43.599Z,98733.75
2022-08-14T22:17:13.035Z,98725.81
2022-08-14T22:19:54.463Z,98724.38
2022-08-14T22:22:23.074Z,98719.44
2022-08-14T22:24:53.434Z,98719.88
2022-08-14T22:27:27.631Z,98729.59
2022-08-14T22:29:58.630Z,98720.22
2022-08-14T22:32:56.029Z,98726.16
2022-08-14T22:35:14.059Z,98716.56
2022-08-14T22:37:44.845Z,98719.75
2022-08-14T22:40:17.599Z,98711.25
2022-08-14T22:43:08.183Z,98712.75
2022-08-14T22:45:37.982Z,98702.59
2022-08-14T22:48:10.788Z,98709.78
2022-08-14T22:50:48.721Z,98713.22
2022-08-14T22:53:16.761Z,98700.31
2022-08-14T22:55:47.803Z,98704.56
2022-08-14T22:58:20.559Z,98706.88
2022-08-14T23:01:01.586Z,98701.31
2022-08-14T23:03:34.213Z,98698.25
2022-08-14T23:06:03.378Z,98697.63
2022-08-14T23:09:01.991Z,98697.25
2022-08-14T23:11:38.704Z,98693.38
2022-08-14T23:14:07.079Z,98693.81
2022-08-14T23:16:40.045Z,98686.97
2022-08-14T23:19:11.196Z,98684.69
2022-08-14T23:21:38.816Z,98691.19
2022-08-14T23:24:14.435Z,98692.47
2022-08-14T23:26:48.737Z,98690.59
2022-08-14T23:29:18.695Z,98688.00
2022-08-14T23:31:46.377Z,98694.88
2022-08-14T23:34:20.809Z,98690.97
2022-08-14T23:36:54.397Z,98696.72
2022-08-14T23:39:24.569Z,98694.56
2022-08-14T23:41:57.052Z,98686.97
2022-08-14T23:44:30.609Z,98684.34
2022-08-14T23:47:00.723Z,98683.38
2022-08-14T23:49:56.944Z,98682.16
2022-08-14T23:53:07.364Z,98673.66
2022-08-14T23:55:11.356Z,98673.03
2022-08-14T23:57:44.030Z,98669.25
